Time;durP1;ratioP1;P1;durP2;ratioP2;P2;SDS_P1;SDS_P2;PMS_P1;PMS_P2;Temp;Humidity;BMP_temperature;BMP_pressure;BME280_temperature;BME280_humidity;BME280_pressure;Samples;Min_cycle;Max_cycle;Signal;HPM_P1;HPM_P2
2022/08/03 00:01:41;;;;;;;3.33;3.10;;;25.10;56.80;;;27.63;42.83;101394.06;5112204;28;20226;-64
2022/08/03 00:04:10;;;;;;;5.10;3.30;;;25.10;56.70;;;27.60;42.93;101399.22;5116141;28;20206;-65
2022/08/03 00:06:38;;;;;;;4.77;2.47;;;25.10;56.80;;;27.55;42.66;101396.50;5116023;27;20195;-63
2022/08/03 00:09:07;;;;;;;4.27;3.03;;;25.10;56.80;;;27.50;42.94;101395.41;5101101;28;20197;-63
2022/08/03 00:11:35;;;;;;;4.73;3.00;;;25.00;56.90;;;27.48;43.04;101396.78;5095493;28;20200;-63
2022/08/03 00:14:03;;;;;;;3.70;3.27;;;25.00;56.90;;;27.47;42.95;101392.44;5096037;28;20195;-64
2022/08/03 00:16:31;;;;;;;3.73;3.33;;;25.00;57.00;;;27.45;42.96;101389.19;5098789;28;20199;-62
2022/08/03 00:18:58;;;;;;;3.67;3.20;;;24.90;57.00;;;27.43;43.05;101385.97;5115822;28;20195;-65
2022/08/03 00:21:27;;;;;;;4.63;3.13;;;24.90;57.10;;;27.39;43.05;101390.28;5116203;27;20211;-64
2022/08/03 00:23:55;;;;;;;4.20;2.97;;;24.90;57.30;;;27.38;43.24;101385.97;5116519;28;20200;-64
2022/08/03 00:26:23;;;;;;;5.53;3.60;;;24.80;57.40;;;27.34;43.36;101384.81;5116502;28;20194;-64
2022/08/03 00:28:51;;;;;;;4.07;3.13;;;24.80;57.60;;;27.29;43.79;101382.13;5116193;28;20192;-63
2022/08/03 00:31:18;;;;;;;3.90;3.10;;;24.80;57.70;;;27.24;43.72;101382.13;5115660;28;20207;-64
2022/08/03 00:34:06;;;;;;;3.90;3.07;;;24.70;58.30;;;27.17;43.90;101384.28;5114071;28;20222;-62
2022/08/03 00:36:33;;;;;;;5.23;3.30;;;24.70;58.40;;;27.16;43.71;101386.16;5115746;28;20567;-63
2022/08/03 00:39:00;;;;;;;3.20;3.00;;;24.60;57.90;;;27.15;43.96;101381.00;5116199;27;20214;-64
2022/08/03 00:41:29;;;;;;;4.10;3.10;;;24.60;58.10;;;27.11;43.99;101379.94;5114784;28;20220;-63
2022/08/03 00:43:56;;;;;;;3.03;2.73;;;24.60;58.40;;;27.06;44.22;101377.22;5115397;27;20195;-64
2022/08/03 00:46:24;;;;;;;3.50;3.13;;;24.60;58.60;;;27.01;44.17;101380.72;5115101;28;20191;-65
2022/08/03 00:48:52;;;;;;;3.20;2.90;;;24.50;58.60;;;26.98;44.54;101380.47;5115257;28;20187;-64
2022/08/03 00:51:21;;;;;;;3.40;3.10;;;24.50;58.80;;;26.95;44.88;101381.00;5112869;28;20222;-64
2022/08/03 00:53:49;;;;;;;3.10;2.90;;;24.40;58.90;;;26.92;44.56;101384.22;5101899;28;20204;-63
2022/08/03 00:56:17;;;;;;;3.20;2.90;;;24.40;59.00;;;26.90;44.68;101380.97;5094621;28;20242;-63
2022/08/03 00:58:46;;;;;;;3.60;3.30;;;24.40;59.20;;;26.85;44.51;101377.19;5094534;28;20629;-64
2022/08/03 01:01:14;;;;;;;3.43;3.13;;;24.40;59.30;;;26.83;45.10;101378.53;5104724;28;20672;-63
2022/08/03 01:03:42;;;;;;;3.80;3.50;;;24.30;59.30;;;26.79;44.95;101378.25;5113890;28;20192;-62
2022/08/03 01:06:18;;;;;;;3.83;3.13;;;24.30;59.40;;;26.72;44.65;101380.34;5095607;28;20195;-63
2022/08/03 01:08:53;;;;;;;3.73;3.40;;;24.30;59.40;;;26.69;45.42;101378.22;5094190;28;20184;-63
2022/08/03 01:11:33;;;;;;;7.53;3.60;;;24.30;60.10;;;26.63;45.50;101378.44;5094122;28;20208;-63
2022/08/03 01:14:11;;;;;;;3.03;2.80;;;24.20;59.50;;;26.56;45.14;101375.97;5094279;28;20184;-63
2022/08/03 01:16:56;;;;;;;3.50;2.97;;;24.20;59.60;;;26.53;45.48;101373.81;5094270;28;20267;-63
2022/08/03 01:19:48;;;;;;;4.10;3.70;;;24.10;59.60;;;26.48;45.80;101370.28;5094449;28;20672;-65
2022/08/03 01:22:51;;;;;;;4.23;3.57;;;24.10;59.60;;;26.44;45.40;101369.19;5093554;28;20236;-63
2022/08/03 01:25:39;;;;;;;3.83;3.33;;;24.10;59.70;;;26.45;45.86;101368.94;5073966;28;20197;-63
2022/08/03 01:28:37;;;;;;;3.50;3.20;;;24.10;60.00;;;26.42;45.34;101372.16;5073558;28;20192;-62
2022/08/03 01:31:10;;;;;;;3.87;3.33;;;24.00;59.90;;;26.44;45.61;101372.69;5073257;28;20174;-62
2022/08/03 01:33:45;;;;;;;3.70;3.40;;;24.00;60.10;;;26.45;45.31;101379.72;5073673;28;20185;-63
2022/08/03 01:36:18;;;;;;;4.37;3.43;;;24.00;60.30;;;26.42;45.79;101368.63;5073865;28;20271;-60
2022/08/03 01:38:52;;;;;;;3.57;3.27;;;24.00;60.40;;;26.39;45.95;101372.66;5073867;28;20185;-63
2022/08/03 01:41:28;;;;;;;3.50;3.20;;;24.00;60.50;;;26.36;46.09;101370.53;5113226;28;20215;-63
2022/08/03 01:44:03;;;;;;;5.77;3.27;;;23.90;60.50;;;26.35;45.86;101379.69;5113797;28;20216;-63
2022/08/03 01:46:54;;;;;;;3.80;3.50;;;23.90;60.60;;;26.34;45.83;101380.75;5113875;28;20192;-63
2022/08/03 01:49:24;;;;;;;4.00;3.60;;;23.90;61.10;;;26.32;45.89;101377.50;5107440;28;20200;-63
2022/08/03 01:51:54;;;;;;;4.73;4.10;;;23.80;60.90;;;26.32;46.06;101371.28;5093390;28;20283;-63
2022/08/03 01:54:35;;;;;;;4.83;3.73;;;23.80;61.30;;;26.28;46.12;101365.59;5093417;28;20189;-63
2022/08/03 01:57:03;;;;;;;4.90;4.13;;;23.80;61.50;;;26.27;46.46;101363.97;5094690;28;20253;-63
2022/08/03 01:59:35;;;;;;;3.83;3.50;;;23.80;61.70;;;26.22;46.36;101371.25;5093449;28;20185;-63
2022/08/03 02:02:06;;;;;;;4.50;4.10;;;23.70;61.70;;;26.16;46.42;101367.69;5093552;28;20207;-62
2022/08/03 02:04:57;;;;;;;3.80;3.60;;;23.70;61.90;;;26.08;47.07;101365.47;5093714;28;20602;-65
2022/08/03 02:07:26;;;;;;;4.20;3.90;;;23.70;61.90;;;26.04;46.92;101364.38;5093580;28;20192;-63
2022/08/03 02:09:57;;;;;;;4.37;3.97;;;23.60;62.00;;;26.01;46.66;101364.88;5093498;28;20234;-62
2022/08/03 02:12:30;;;;;;;6.40;4.10;;;23.60;62.10;;;26.00;47.27;101365.97;5094277;28;20211;-63
2022/08/03 02:15:00;;;;;;;12.57;4.37;;;23.60;62.40;;;25.97;46.90;101363.78;5093484;28;20275;-63
2022/08/03 02:17:32;;;;;;;3.87;3.57;;;23.50;62.40;;;25.96;46.91;101367.56;5093304;28;20189;-63
2022/08/03 02:20:11;;;;;;;4.73;4.00;;;23.50;62.70;;;25.91;47.27;101370.25;5093592;28;20188;-63
2022/08/03 02:22:40;;;;;;;3.90;3.60;;;23.50;62.80;;;25.90;47.75;101364.03;5092956;28;20204;-62
2022/08/03 02:25:11;;;;;;;4.03;3.70;;;23.40;62.70;;;25.89;46.97;101361.56;5093120;28;20528;-63
2022/08/03 02:27:47;;;;;;;4.00;3.57;;;23.40;62.60;;;25.90;46.97;101365.91;5093136;28;20196;-63
2022/08/03 02:30:15;;;;;;;4.73;4.33;;;23.40;62.70;;;25.90;47.60;101358.63;5094507;28;20192;-63
2022/08/03 02:32:53;;;;;;;5.70;4.70;;;23.40;63.10;;;25.88;47.85;101359.97;5092778;28;20212;-63
2022/08/03 02:35:24;;;;;;;4.80;4.23;;;23.40;63.30;;;25.88;47.79;101357.25;5092068;28;20196;-63
2022/08/03 02:37:58;;;;;;;6.63;3.93;;;23.40;63.20;;;25.85;47.34;101357.78;5092054;28;20201;-64
2022/08/03 02:40:29;;;;;;;5.33;4.57;;;23.40;63.40;;;25.84;47.24;101353.47;5092884;28;20276;-63
2022/08/03 02:43:02;;;;;;;4.83;4.33;;;23.30;63.20;;;25.82;47.46;101348.31;5095564;28;20232;-63
2022/08/03 02:45:35;;;;;;;4.97;4.47;;;23.30;63.40;;;25.81;47.83;101353.97;5098762;28;20192;-63
2022/08/03 02:48:06;;;;;;;5.93;4.40;;;23.30;63.40;;;25.82;48.01;101344.78;5117550;28;20595;-63
2022/08/03 02:50:35;;;;;;;5.07;4.13;;;23.30;63.50;;;25.79;47.45;101351.56;5117036;28;20671;-63
2022/08/03 02:53:05;;;;;;;4.10;3.80;;;23.30;63.60;;;25.78;47.57;101344.53;5117167;27;20207;-63
2022/08/03 02:55:35;;;;;;;4.70;4.13;;;23.30;63.70;;;25.76;48.21;101341.28;5117146;28;20196;-63
2022/08/03 02:58:12;;;;;;;5.00;4.23;;;23.20;63.80;;;25.73;47.62;101346.34;5099983;28;20606;-62
2022/08/03 03:00:42;;;;;;;4.90;4.50;;;23.20;63.90;;;25.72;47.73;101350.16;5103364;28;20206;-63
2022/08/03 03:03:12;;;;;;;4.90;4.50;;;23.20;64.00;;;25.70;48.51;101338.81;5115105;28;20311;-63
2022/08/03 03:05:42;;;;;;;4.67;4.07;;;23.20;64.10;;;25.68;48.48;101335.53;5117570;28;20192;-64
2022/08/03 03:08:25;;;;;;;4.63;4.23;;;23.20;64.80;;;25.64;47.98;101342.53;5109247;28;20245;-62
2022/08/03 03:10:58;;;;;;;6.27;4.13;;;23.20;64.30;;;25.60;48.77;101346.81;5097478;28;20697;-63
2022/08/03 03:13:27;;;;;;;4.40;4.03;;;23.20;64.50;;;25.56;48.13;101341.13;5097399;28;20184;-62
2022/08/03 03:16:02;;;;;;;4.90;4.60;;;23.10;64.40;;;25.53;48.16;101347.84;5097264;28;20213;-64
2022/08/03 03:18:33;;;;;;;6.67;4.93;;;23.10;64.60;;;25.52;48.31;101345.41;5096991;28;20188;-64
2022/08/03 03:21:03;;;;;;;6.37;4.23;;;23.10;64.70;;;25.49;48.40;101352.13;5114009;28;20195;-64
2022/08/03 03:23:34;;;;;;;4.63;4.23;;;23.00;64.60;;;25.49;48.37;101352.13;5116285;28;20692;-64
2022/08/03 03:26:02;;;;;;;4.60;4.20;;;23.00;64.80;;;25.49;48.47;101352.13;5116809;28;20198;-64
2022/08/03 03:28:31;;;;;;;4.90;4.50;;;23.00;64.80;;;25.50;48.67;101351.06;5116038;28;20717;-64
2022/08/03 03:30:59;;;;;;;7.93;5.03;;;23.00;64.80;;;25.49;48.32;101362.91;5115052;28;20202;-62
2022/08/03 03:33:27;;;;;;;5.20;4.03;;;22.90;65.00;;;25.48;48.32;101360.50;5116330;28;20191;-63
2022/08/03 03:35:57;;;;;;;4.80;4.40;;;22.90;65.00;;;25.46;49.06;101359.91;5115320;28;20198;-63
2022/08/03 03:38:25;;;;;;;5.30;4.90;;;22.90;65.10;;;25.42;48.41;101356.91;5116809;28;20191;-63
2022/08/03 03:40:53;;;;;;;5.37;4.87;;;22.90;65.10;;;25.38;48.51;101355.78;5116507;28;20207;-63
2022/08/03 03:43:23;;;;;;;6.23;4.83;;;22.90;65.00;;;25.34;49.09;101353.88;5097452;28;20227;-63
2022/08/03 03:45:52;;;;;;;5.30;4.80;;;22.90;65.10;;;25.33;48.99;101355.75;5096609;28;20185;-63
2022/08/03 03:48:20;;;;;;;5.63;5.13;;;22.80;65.10;;;25.30;48.96;101350.88;5095726;28;20195;-62
2022/08/03 03:50:49;;;;;;;5.77;5.23;;;22.80;65.20;;;25.26;49.38;101351.63;5095061;28;20197;-63
2022/08/03 03:53:18;;;;;;;5.37;4.63;;;22.80;65.40;;;25.25;48.74;101353.50;5095669;28;20219;-62
2022/08/03 03:55:46;;;;;;;4.10;3.80;;;22.80;65.40;;;25.27;49.10;101350.56;5095313;28;20192;-63
2022/08/03 03:58:31;;;;;;;4.53;4.17;;;22.70;65.20;;;25.32;49.12;101356.00;5095319;28;20739;-63
2022/08/03 04:00:59;;;;;;;5.13;4.77;;;22.70;65.30;;;25.32;49.07;101350.59;5104580;28;20200;-63
2022/08/03 04:03:26;;;;;;;5.60;5.00;;;22.80;65.60;;;25.32;48.75;101348.72;5115820;28;20215;-63
2022/08/03 04:11:37;;;;;;;5.30;4.90;;;22.70;65.80;;;25.23;48.92;101352.97;5075280;28;20287;-63
2022/08/03 04:14:09;;;;;;;5.60;5.10;;;22.70;65.80;;;25.23;49.67;101350.25;5075520;28;20654;-62
2022/08/03 04:16:43;;;;;;;5.00;4.60;;;22.70;65.90;;;25.22;49.47;101339.75;5075283;28;20189;-62
2022/08/03 04:19:17;;;;;;;5.50;5.00;;;22.70;66.00;;;25.20;49.18;101340.00;5075247;28;20549;-65
2022/08/03 04:21:56;;;;;;;6.60;5.40;;;22.70;66.30;;;25.19;49.24;101338.38;5075253;28;20647;-61
2022/08/03 04:24:37;;;;;;;9.63;4.97;;;22.70;66.30;;;25.14;49.78;101341.03;5075308;28;20197;-63
2022/08/03 04:27:10;;;;;;;5.37;4.87;;;22.70;66.40;;;25.18;49.25;101338.63;5106432;28;20202;-61
2022/08/03 04:29:44;;;;;;;8.00;5.53;;;22.70;66.50;;;25.15;49.58;101334.53;5115233;28;20278;-62
2022/08/03 04:32:16;;;;;;;5.07;4.57;;;22.60;66.60;;;25.14;49.48;101343.72;5116018;28;20628;-62
2022/08/03 04:34:45;;;;;;;5.80;5.20;;;22.60;66.40;;;25.15;49.36;101350.72;5117711;28;20192;-63
2022/08/03 04:37:25;;;;;;;9.50;5.37;;;22.60;66.60;;;25.13;50.07;101352.84;5117267;28;20199;-63
2022/08/03 04:40:00;;;;;;;5.57;5.07;;;22.60;66.60;;;25.14;49.31;101343.72;5076335;28;20204;-63
2022/08/03 04:42:32;;;;;;;6.70;6.00;;;22.60;66.70;;;25.13;49.35;101347.47;5089895;28;20239;-63
2022/08/03 04:45:01;;;;;;;6.27;4.70;;;22.60;66.70;;;25.16;49.76;101346.97;5097001;28;20272;-65
2022/08/03 04:47:32;;;;;;;5.57;5.07;;;22.60;66.80;;;25.14;49.70;101349.09;5097598;28;20188;-64
2022/08/03 04:50:01;;;;;;;6.33;4.97;;;22.60;66.90;;;25.16;49.34;101355.06;5095735;28;20200;-63
2022/08/03 04:52:30;;;;;;;6.13;5.53;;;22.60;66.80;;;25.17;49.77;101351.31;5094611;28;20216;-63
2022/08/03 04:54:58;;;;;;;4.93;4.53;;;22.60;67.00;;;25.18;50.09;101354.78;5094879;28;20199;-64
2022/08/03 04:57:26;;;;;;;6.87;5.10;;;22.60;66.70;;;25.19;49.86;101351.84;5094758;28;20215;-64
2022/08/03 04:59:55;;;;;;;5.47;5.07;;;22.60;66.90;;;25.21;49.40;101349.72;5095829;28;20196;-63
2022/08/03 05:02:30;;;;;;;5.40;4.77;;;22.60;66.80;;;25.23;50.01;101347.56;5114570;28;20214;-64
2022/08/03 05:04:58;;;;;;;6.10;5.50;;;22.70;66.90;;;25.25;49.44;101353.50;5114513;28;20271;-62
2022/08/03 05:07:26;;;;;;;11.50;5.77;;;22.70;66.70;;;25.23;49.45;101361.03;5113329;28;20284;-64
2022/08/03 05:10:07;;;;;;;6.37;5.77;;;22.70;66.70;;;25.23;49.93;101358.34;5094645;28;20262;-63
2022/08/03 05:12:44;;;;;;;6.37;5.77;;;22.70;66.70;;;25.19;50.12;101357.25;5104792;28;20211;-63
2022/08/03 05:15:12;;;;;;;6.23;5.53;;;22.70;66.70;;;25.19;49.89;101357.25;5114399;28;20192;-63
2022/08/03 05:17:40;;;;;;;7.57;5.70;;;22.70;66.70;;;25.22;49.41;101361.31;5114869;28;20274;-64
2022/08/03 05:20:09;;;;;;;6.20;5.70;;;22.70;66.60;;;25.24;49.87;101360.00;5114513;28;20192;-63
2022/08/03 05:22:37;;;;;;;5.67;5.17;;;22.80;66.60;;;25.27;49.29;101359.47;5114200;28;20221;-64
2022/08/03 05:25:07;;;;;;;9.17;5.27;;;22.80;66.50;;;25.37;49.23;101364.94;5114230;28;20275;-64
2022/08/03 05:27:34;;;;;;;7.57;5.60;;;22.80;66.40;;;25.45;49.35;101366.38;5094687;28;20219;-64
2022/08/03 05:30:03;;;;;;;5.70;5.20;;;22.90;66.30;;;25.53;49.46;101364.03;5093844;28;20567;-63
2022/08/03 05:32:50;;;;;;;7.13;4.67;;;23.00;66.20;;;25.58;49.34;101357.06;5093807;28;20595;-63
2022/08/03 05:35:18;;;;;;;6.10;5.50;;;23.00;66.00;;;25.63;49.20;101368.69;5093618;28;20200;-63
2022/08/03 05:38:05;;;;;;;5.17;4.77;;;23.10;65.90;;;25.66;49.02;101362.78;5093553;28;20498;-64
2022/08/03 05:40:36;;;;;;;5.83;4.67;;;23.10;65.70;;;25.74;48.93;101369.56;5093555;28;20267;-63
2022/08/03 05:43:05;;;;;;;6.00;4.70;;;23.20;65.70;;;25.80;48.98;101371.22;5094837;28;20216;-64
2022/08/03 05:45:33;;;;;;;5.20;4.70;;;23.20;65.60;;;25.82;48.95;101374.47;5093413;28;20188;-63
2022/08/03 05:48:00;;;;;;;7.47;5.33;;;23.30;65.50;;;25.84;48.87;101370.44;5093744;28;20192;-64
2022/08/03 05:50:27;;;;;;;8.60;5.57;;;23.30;65.30;;;25.94;48.66;101370.50;5093391;28;20653;-63
2022/08/03 05:52:56;;;;;;;5.50;5.00;;;23.40;65.30;;;26.04;48.49;101369.75;5093563;28;20591;-64
2022/08/03 05:55:24;;;;;;;6.03;4.77;;;23.40;65.10;;;26.12;47.95;101364.72;5093727;28;20679;-63
2022/08/03 05:57:53;;;;;;;5.20;4.70;;;23.50;64.90;;;26.18;48.08;101360.16;5093220;28;20226;-66
2022/08/03 06:00:23;;;;;;;5.13;4.33;;;23.60;64.80;;;26.25;48.06;101363.44;5109192;28;20192;-65
2022/08/03 06:02:51;;;;;;;4.70;4.23;;;23.60;64.60;;;26.34;47.22;101359.13;5129258;27;20216;-64
2022/08/03 06:05:19;;;;;;;5.83;5.33;;;23.70;64.60;;;26.40;47.83;101360.81;5112630;28;20198;-64
2022/08/03 06:07:46;;;;;;;4.90;4.40;;;23.80;64.60;;;26.41;47.23;101370.50;5109689;28;20631;-65
2022/08/03 06:10:14;;;;;;;7.00;6.10;;;23.80;64.30;;;26.50;47.14;101370.84;5109029;28;20188;-63
2022/08/03 06:13:03;;;;;;;5.30;4.80;;;23.90;64.30;;;26.59;47.10;101361.13;5093160;28;20211;-63
2022/08/03 06:15:32;;;;;;;5.50;5.00;;;24.00;65.00;;;26.63;47.48;101363.03;5094215;28;20188;-64
2022/08/03 06:17:59;;;;;;;4.90;4.40;;;24.00;64.00;;;26.74;46.95;101369.31;5095700;28;20552;-64
2022/08/03 06:20:29;;;;;;;4.40;4.00;;;24.10;63.90;;;26.86;46.81;101368.00;5096917;28;20188;-64
2022/08/03 06:22:56;;;;;;;4.80;4.40;;;24.10;63.70;;;26.94;46.78;101363.97;5097508;28;20216;-63
2022/08/03 06:25:27;;;;;;;4.70;4.10;;;24.20;64.20;;;26.98;46.12;101365.03;5097090;28;20214;-65
2022/08/03 06:27:55;;;;;;;4.90;4.37;;;24.30;63.20;;;27.03;46.64;101361.56;5096889;28;20203;-64
2022/08/03 06:30:24;;;;;;;4.57;3.87;;;24.40;63.10;;;27.07;46.14;101365.34;5096906;28;20199;-64
2022/08/03 06:32:52;;;;;;;4.40;4.00;;;24.50;63.10;;;27.17;46.49;101373.47;5097970;28;20208;-64
2022/08/03 06:35:19;;;;;;;3.97;3.57;;;24.60;63.10;;;27.29;45.86;101371.31;5097140;28;20661;-63
2022/08/03 06:37:49;;;;;;;4.70;4.07;;;24.60;63.00;;;27.41;46.00;101369.16;5097229;28;20642;-63
2022/08/03 06:40:19;;;;;;;3.93;3.50;;;24.70;63.00;;;27.53;46.03;101367.00;5096594;28;20606;-63
2022/08/03 06:42:50;;;;;;;4.47;3.40;;;24.70;62.80;;;27.66;45.51;101377.28;5096786;28;20730;-64
2022/08/03 06:45:18;;;;;;;13.67;12.33;;;24.90;62.70;;;27.77;45.47;101378.88;5096384;28;20665;-64
2022/08/03 06:47:58;;;;;;;4.83;4.20;;;25.00;62.70;;;27.84;45.51;101382.13;5096605;28;20674;-64
2022/08/03 06:50:25;;;;;;;4.43;4.03;;;25.10;62.40;;;27.93;45.22;101388.59;5076262;28;20189;-64
2022/08/03 06:52:53;;;;;;;5.87;3.67;;;25.20;62.20;;;27.99;45.20;101382.13;5076310;28;20213;-64
2022/08/03 06:55:20;;;;;;;5.13;4.00;;;25.30;62.00;;;28.06;44.92;101385.38;5076234;28;20197;-64
2022/08/03 06:57:48;;;;;;;4.77;4.30;;;25.30;61.80;;;28.10;44.91;101389.16;5076087;28;20233;-64
2022/08/03 07:00:16;;;;;;;5.27;3.77;;;25.40;61.70;;;28.15;45.10;101383.72;5082054;28;20187;-64
2022/08/03 07:02:43;;;;;;;5.23;3.73;;;25.50;61.60;;;28.25;45.08;101390.19;5116302;28;20223;-64
2022/08/03 07:05:13;;;;;;;4.10;3.70;;;25.60;61.60;;;28.37;44.95;101387.97;5111835;28;20191;-65
2022/08/03 07:07:41;;;;;;;4.40;3.47;;;25.60;61.50;;;28.52;44.78;101379.81;5096319;28;20196;-64
2022/08/03 07:10:12;;;;;;;3.73;2.87;;;25.70;61.40;;;28.66;44.66;101383.56;5096023;28;20189;-63
2022/08/03 07:12:40;;;;;;;5.17;3.20;;;25.80;61.40;;;28.79;44.38;101385.63;5095241;28;20243;-64
2022/08/03 07:15:23;;;;;;;2.83;2.27;;;25.90;61.30;;;28.92;44.36;101390.47;5095842;28;20211;-65
2022/08/03 07:18:10;;;;;;;5.80;4.30;;;26.00;61.10;;;29.04;43.81;101388.22;5095817;28;20204;-64
2022/08/03 07:20:39;;;;;;;5.47;3.77;;;26.10;60.70;;;29.11;43.83;101388.72;5095505;28;20596;-64
2022/08/03 07:23:24;;;;;;;3.87;3.03;;;26.20;60.60;;;29.19;44.08;101390.06;5114331;28;20238;-65
2022/08/03 07:25:52;;;;;;;3.40;2.70;;;26.30;60.70;;;29.36;44.01;101393.97;5116986;28;20529;-64
2022/08/03 07:28:19;;;;;;;7.27;4.20;;;26.50;60.60;;;29.36;43.50;101396.69;5097531;28;20652;-63
2022/08/03 07:30:47;;;;;;;3.97;3.07;;;26.50;60.30;;;29.35;43.47;101395.09;5095695;28;20263;-64
2022/08/03 07:33:14;;;;;;;3.70;3.27;;;26.60;60.10;;;29.26;44.51;101391.31;5095423;28;20216;-64
2022/08/03 07:35:43;;;;;;;6.07;3.17;;;26.60;60.10;;;29.35;44.30;101392.38;5095637;28;20189;-64
2022/08/03 07:38:10;;;;;;;4.33;2.87;;;26.80;60.20;;;29.50;43.80;101408.50;5096539;28;20517;-63
2022/08/03 07:40:38;;;;;;;5.73;3.47;;;26.80;60.00;;;29.50;43.53;101403.09;5095673;28;20646;-63
2022/08/03 07:43:12;;;;;;;5.10;2.70;;;26.80;59.70;;;29.63;43.80;101406.25;5095488;28;20216;-63
2022/08/03 07:45:39;;;;;;;2.70;2.20;;;26.90;59.70;;;29.80;43.92;101402.06;5095719;28;20185;-64
2022/08/03 07:48:06;;;;;;;4.87;2.60;;;27.00;59.80;;;30.02;43.06;101404.28;5095611;28;20204;-62
2022/08/03 07:50:39;;;;;;;3.87;2.27;;;27.20;59.80;;;30.24;42.42;101406.50;5095413;28;20243;-64
2022/08/03 07:53:08;;;;;;;5.30;2.90;;;27.30;59.40;;;30.40;42.37;101399.81;5095465;28;20212;-64
2022/08/03 07:55:35;;;;;;;3.83;2.70;;;27.40;58.90;;;30.54;41.38;101403.44;5103938;28;20192;-64
2022/08/03 07:58:05;;;;;;;2.77;2.53;;;27.60;58.40;;;30.62;41.90;101409.03;5114594;28;20187;-65
2022/08/03 08:00:33;;;;;;;6.20;2.83;;;27.60;57.90;;;30.88;41.78;101411.41;5115428;28;20192;-64
2022/08/03 08:03:01;;;;;;;4.60;2.47;;;27.80;58.10;;;31.33;41.33;101397.16;5116028;28;20204;-64
2022/08/03 08:05:30;;;;;;;6.33;2.83;;;28.00;58.10;;;32.05;39.73;101398.38;5116040;28;20644;-64
2022/08/03 08:07:58;;;;;;;3.97;2.40;;;28.30;57.60;;;32.87;37.83;101401.88;5110135;28;20196;-64
2022/08/03 08:10:28;;;;;;;4.80;2.80;;;28.70;56.80;;;33.71;36.83;101404.81;5094912;28;20268;-63
2022/08/03 08:12:56;;;;;;;3.53;2.67;;;29.20;55.50;;;34.42;35.18;101407.22;5128057;27;20216;-64
2022/08/03 08:15:24;;;;;;;2.80;2.60;;;29.70;54.20;;;35.03;33.19;101408.19;5114443;28;20214;-64
2022/08/03 08:17:55;;;;;;;6.17;2.50;;;30.20;51.60;;;35.48;32.81;101417.66;5115060;28;20219;-64
2022/08/03 08:20:26;;;;;;;4.63;2.47;;;30.70;50.30;;;35.56;32.36;101408.66;5114816;28;20287;-64
2022/08/03 08:23:00;;;;;;;3.17;2.57;;;31.20;49.50;;;35.40;32.29;101402.03;5110432;28;20294;-65
2022/08/03 08:25:31;;;;;;;2.73;2.33;;;31.30;47.90;;;35.57;33.28;101399.28;5110078;28;20188;-63
2022/08/03 08:28:03;;;;;;;6.07;2.70;;;31.60;48.20;;;36.00;32.17;101397.25;5095774;28;20203;-63
2022/08/03 08:30:50;;;;;;;4.10;2.70;;;31.80;47.40;;;36.32;32.11;101395.00;5094709;28;20196;-65
2022/08/03 08:33:18;;;;;;;5.10;2.75;;;32.10;47.20;;;36.57;30.86;101400.34;5094856;28;20208;-64
2022/08/03 08:35:52;;;;;;;4.90;2.90;;;32.30;46.50;;;36.87;30.44;101403.06;5094494;28;20282;-64
2022/08/03 08:38:20;;;;;;;5.63;2.67;;;32.60;46.00;;;37.32;30.20;101396.53;5093864;28;20208;-64
2022/08/03 08:40:50;;;;;;;5.55;2.40;;;32.80;45.80;;;37.71;29.35;101405.34;5093971;28;20188;-64
2022/08/03 08:43:17;;;;;;;5.18;2.80;;;33.10;44.60;;;37.82;29.16;101390.03;5094419;28;20205;-63
2022/08/03 08:45:47;;;;;;;3.25;2.88;;;33.30;44.10;;;38.41;28.31;101395.94;5095765;28;20203;-64
2022/08/03 08:48:21;;;;;;;3.63;2.55;;;33.50;42.70;;;39.13;27.57;101403.25;5093634;28;20176;-66
2022/08/03 08:50:53;;;;;;;5.53;2.22;;;33.90;42.70;;;39.96;26.89;101391.31;5084103;27;20221;-63
2022/08/03 08:53:21;;;;;;;5.78;3.85;;;34.40;42.30;;;40.41;25.62;101386.09;5103938;28;20227;-63
2022/08/03 08:56:01;;;;;;;4.88;2.38;;;34.80;39.70;;;40.55;24.78;101397.50;5079436;28;20193;-63
2022/08/03 08:58:33;;;;;;;4.10;3.30;;;35.20;39.30;;;40.88;25.42;101395.09;5112615;28;20188;-63
2022/08/03 09:01:01;;;;;;;5.35;2.55;;;35.50;38.70;;;40.92;23.90;101390.41;5103657;28;20276;-64
2022/08/03 09:03:28;;;;;;;3.65;2.35;;;35.60;36.40;;;40.43;25.22;101397.59;5104107;28;20206;-65
2022/08/03 09:05:59;;;;;;;2.67;2.47;;;35.80;36.60;;;40.32;25.53;101394.56;5103433;28;20637;-66
2022/08/03 09:08:29;;;;;;;4.22;2.78;;;35.90;37.20;;;40.49;25.15;101390.63;5099089;28;20561;-65
2022/08/03 09:10:58;;;;;;;3.17;2.50;;;35.90;36.50;;;40.57;24.58;101392.41;5104059;28;20230;-65
2022/08/03 09:13:26;;;;;;;4.40;2.45;;;35.90;36.90;;;40.71;24.86;101392.72;5100209;28;20203;-65
2022/08/03 09:16:12;;;;;;;3.72;2.78;;;36.00;36.40;;;40.94;24.34;101401.09;5102148;28;20274;-65
2022/08/03 09:18:41;;;;;;;3.28;2.35;;;36.10;35.70;;;41.30;23.85;101388.81;5099579;28;20220;-65
2022/08/03 09:21:19;;;;;;;3.08;2.22;;;36.30;36.10;;;41.73;23.21;101388.44;5103072;28;20206;-65
2022/08/03 09:24:04;;;;;;;4.30;2.40;;;36.50;35.10;;;41.76;22.95;101384.94;5102838;28;20212;-65
2022/08/03 09:26:49;;;;;;;4.05;3.70;;;36.60;34.40;;;42.03;22.81;101391.31;5101595;28;20211;-66
2022/08/03 09:29:21;;;;;;;4.78;2.95;;;36.90;34.50;;;41.83;22.42;101398.88;5102366;28;20203;-68
2022/08/03 09:31:59;;;;;;;7.22;2.60;;;36.80;33.70;;;41.98;22.91;101392.44;5102255;28;20607;-65
2022/08/03 09:34:27;;;;;;;5.40;2.40;;;37.00;34.10;;;42.33;22.66;101389.41;5101589;28;20188;-65
2022/08/03 09:37:01;;;;;;;5.22;2.80;;;37.10;33.90;;;42.67;22.37;101390.31;5102385;28;20668;-66
2022/08/03 09:39:31;;;;;;;3.60;2.67;;;37.30;33.50;;;43.01;21.86;101391.94;5103269;28;20196;-66
2022/08/03 09:42:12;;;;;;;4.63;2.53;;;37.40;32.90;;;43.11;21.37;101391.25;5117265;27;20212;-64
2022/08/03 09:44:43;;;;;;;5.65;2.58;;;37.60;32.60;;;43.09;21.51;101388.88;5101609;28;20572;-64
2022/08/03 09:47:15;;;;;;;4.93;2.53;;;37.70;32.30;;;42.95;21.28;101396.22;5102130;28;20274;-65
2022/08/03 09:50:00;;;;;;;4.25;2.75;;;37.70;32.00;;;42.28;21.64;101382.22;5101384;28;20197;-64
2022/08/03 09:52:33;;;;;;;4.93;2.80;;;37.60;31.90;;;41.82;22.86;101380.69;5098379;28;20219;-64
2022/08/03 09:55:19;;;;;;;3.53;2.40;;;37.40;32.70;;;41.94;22.37;101377.72;5101995;28;20201;-65
2022/08/03 09:58:09;;;;;;;3.28;2.33;;;37.30;32.70;;;42.78;22.08;101372.63;5102124;27;20215;-64
2022/08/03 10:00:55;;;;;;;2.63;2.30;;;37.50;33.40;;;43.67;20.52;101363.31;5101800;28;20201;-66
2022/08/03 10:03:24;;;;;;;4.38;2.88;;;37.70;32.30;;;43.22;20.63;101375.53;5100440;28;20212;-64
2022/08/03 10:05:52;;;;;;;7.15;2.63;;;37.60;31.20;;;43.01;20.82;101375.31;5098347;28;20238;-65
2022/08/03 10:08:26;;;;;;;4.03;2.80;;;37.70;31.10;;;43.13;20.99;101372.25;5101427;28;20252;-65
2022/08/03 10:10:53;;;;;;;4.43;2.33;;;37.80;31.40;;;43.60;20.80;101364.03;5104246;28;20640;-65
2022/08/03 10:13:23;;;;;;;2.65;2.42;;;38.00;31.20;;;43.97;20.61;101365.94;5101062;28;20224;-67
2022/08/03 10:15:50;;;;;;;6.55;2.80;;;38.20;31.00;;;44.44;19.32;101368.63;5102693;28;20537;-64
2022/08/03 10:18:38;;;;;;;6.13;5.13;;;38.40;30.10;;;44.68;19.38;101367.19;5102529;28;20203;-64
2022/08/03 10:21:12;;;;;;;5.22;2.80;;;38.70;30.50;;;45.13;19.29;101363.78;5099100;28;20206;-64
2022/08/03 10:23:41;;;;;;;3.35;2.75;;;38.90;29.70;;;45.82;18.27;101375.41;5115266;28;20592;-64
2022/08/03 10:26:15;;;;;;;3.13;2.30;;;39.30;29.60;;;45.91;17.95;101361.88;5098027;28;20700;-64
2022/08/03 10:28:51;;;;;;;4.30;3.00;;;39.40;28.60;;;45.49;18.45;101373.00;5097458;28;20306;-65
2022/08/03 10:31:23;;;;;;;3.20;2.75;;;39.50;28.50;;;45.75;18.59;101369.84;5100017;28;20601;-64
2022/08/03 10:33:57;;;;;;;3.83;2.80;;;39.80;29.00;;;46.04;17.93;101368.66;5101320;28;20196;-64
2022/08/03 10:36:30;;;;;;;7.40;2.65;;;39.90;28.70;;;46.00;17.78;101362.31;5101162;28;20206;-64
2022/08/03 10:39:01;;;;;;;4.55;2.92;;;40.00;28.40;;;46.07;18.33;101353.13;5101312;28;20192;-64